Time;durP1;ratioP1;P1;durP2;ratioP2;P2;SDS_P1;SDS_P2;PMS_P1;PMS_P2;Temp;Humidity;BMP_temperature;BMP_pressure;BME280_temperature;BME280_humidity;BME280_pressure;Samples;Min_cycle;Max_cycle;Signal;HPM_P1;HPM_P2
2022/11/07 00:00:35;;;;;;;16.35;2.63;;;;;;;;;;5051830;28;20503;-67
2022/11/07 00:03:02;;;;;;;10.75;1.70;;;;;;;;;;5052131;28;20485;-68
2022/11/07 00:05:28;;;;;;;10.07;2.17;;;;;;;;;;5052179;28;20053;-67
2022/11/07 00:07:54;;;;;;;12.85;2.10;;;;;;;;;;5052117;28;20071;-67
2022/11/07 00:10:21;;;;;;;14.02;3.00;;;;;;;;;;5052127;28;20045;-67
2022/11/07 00:12:47;;;;;;;14.05;1.70;;;;;;;;;;5051989;28;20463;-67
2022/11/07 00:15:14;;;;;;;11.00;1.85;;;;;;;;;;5051415;28;20049;-68
2022/11/07 00:17:40;;;;;;;12.32;2.17;;;;;;;;;;5051740;28;20407;-68
2022/11/07 00:20:06;;;;;;;10.50;1.70;;;;;;;;;;5051579;28;20052;-67
2022/11/07 00:22:33;;;;;;;15.20;2.22;;;;;;;;;;5051904;28;20053;-67
2022/11/07 00:24:59;;;;;;;10.07;1.80;;;;;;;;;;5051831;28;20048;-68
2022/11/07 00:27:26;;;;;;;15.25;2.15;;;;;;;;;;5051886;28;20053;-68
2022/11/07 00:29:52;;;;;;;13.48;2.47;;;;;;;;;;5051873;28;20057;-68
2022/11/07 00:32:20;;;;;;;7.90;1.75;;;;;;;;;;5051486;28;20060;-68
2022/11/07 00:34:47;;;;;;;10.38;1.90;;;;;;;;;;5050309;28;20111;-68
2022/11/07 00:37:13;;;;;;;10.57;2.17;;;;;;;;;;5050068;28;20056;-68
2022/11/07 00:39:40;;;;;;;10.82;1.90;;;;;;;;;;5051743;28;20045;-68
2022/11/07 00:42:06;;;;;;;8.38;2.30;;;;;;;;;;5051321;28;20493;-68
2022/11/07 00:44:32;;;;;;;10.40;1.80;;;;;;;;;;5050173;28;20052;-68
2022/11/07 00:46:59;;;;;;;10.35;1.55;;;;;;;;;;5051377;28;20049;-67
2022/11/07 00:49:25;;;;;;;7.93;1.40;;;;;;;;;;5051421;28;20128;-68
2022/11/07 00:51:51;;;;;;;14.57;2.25;;;;;;;;;;5051666;28;20071;-68
2022/11/07 00:54:18;;;;;;;10.75;2.22;;;;;;;;;;5051561;28;20049;-67
2022/11/07 00:56:44;;;;;;;8.50;1.70;;;;;;;;;;5051520;28;20400;-68
2022/11/07 00:59:11;;;;;;;8.15;1.60;;;;;;;;;;5051215;28;20045;-67
2022/11/07 01:01:38;;;;;;;12.02;2.03;;;;;;;;;;5051472;28;20060;-67
2022/11/07 01:06:49;;;;;;;8.75;1.70;;;;;;;;;;5051546;28;20082;-68
2022/11/07 01:09:18;;;;;;;9.10;2.08;;;;;;;;;;5048165;28;20055;-67
2022/11/07 01:11:45;;;;;;;11.50;1.58;;;;;;;;;;5039374;28;20489;-68
2022/11/07 01:14:12;;;;;;;11.68;2.10;;;;;;;;;;5049939;28;20092;-68
2022/11/07 01:16:40;;;;;;;12.30;1.53;;;;;;;;;;5051008;28;20045;-68
2022/11/07 01:19:06;;;;;;;;;;;;;;;;;;5050172;28;20064;-67
2022/11/07 01:21:33;;;;;;;9.80;1.98;;;;;;;;;;5051275;28;19932;-68
2022/11/07 01:24:00;;;;;;;10.00;1.80;;;;;;;;;;5051010;28;20507;-68
2022/11/07 01:26:26;;;;;;;18.67;2.40;;;;;;;;;;5051257;28;20049;-68
2022/11/07 01:28:53;;;;;;;8.43;2.20;;;;;;;;;;5050949;28;20083;-67
2022/11/07 01:31:19;;;;;;;12.85;2.03;;;;;;;;;;5050963;28;20053;-67
2022/11/07 01:33:45;;;;;;;15.32;2.58;;;;;;;;;;5050804;28;20053;-68
2022/11/07 01:36:13;;;;;;;11.48;2.08;;;;;;;;;;5051087;28;20396;-68
2022/11/07 01:38:39;;;;;;;;;;;;;;;;;;5051338;28;20044;-68
2022/11/07 01:41:25;;;;;;;14.15;2.30;;;;;;;;;;5053086;28;20299;-68
2022/11/07 01:43:54;;;;;;;14.23;2.38;;;;;;;;;;5054785;28;20084;-68
2022/11/07 01:46:21;;;;;;;12.50;2.00;;;;;;;;;;5054487;28;20506;-67
2022/11/07 01:48:59;;;;;;;14.40;2.35;;;;;;;;;;5054508;28;20060;-67
2022/11/07 01:51:26;;;;;;;13.68;2.53;;;;;;;;;;5054367;28;20049;-68
2022/11/07 01:53:53;;;;;;;19.27;3.13;;;;;;;;;;5054323;28;20071;-68
2022/11/07 01:56:22;;;;;;;14.05;2.35;;;;;;;;;;5054502;28;20051;-67
2022/11/07 01:58:48;;;;;;;12.40;1.92;;;;;;;;;;5054386;28;20049;-68
2022/11/07 02:01:15;;;;;;;17.75;2.63;;;;;;;;;;5054430;28;20048;-68
2022/11/07 02:03:43;;;;;;;16.83;2.88;;;;;;;;;;5054331;28;20044;-68
2022/11/07 02:06:12;;;;;;;18.02;3.00;;;;;;;;;;5054015;28;20591;-68
2022/11/07 02:08:40;;;;;;;18.15;3.20;;;;;;;;;;5053956;28;20049;-68
2022/11/07 02:11:06;;;;;;;22.40;3.47;;;;;;;;;;5053973;28;20056;-68
2022/11/07 02:13:33;;;;;;;15.98;2.60;;;;;;;;;;5054169;28;20071;-68
2022/11/07 02:16:01;;;;;;;13.73;2.85;;;;;;;;;;5054073;28;20059;-68
2022/11/07 02:18:28;;;;;;;18.90;3.10;;;;;;;;;;5054087;28;20055;-68
2022/11/07 02:20:56;;;;;;;20.10;3.72;;;;;;;;;;5053872;28;20079;-68
2022/11/07 02:23:26;;;;;;;22.17;3.63;;;;;;;;;;5053951;28;20404;-68
2022/11/07 02:25:53;;;;;;;20.05;3.55;;;;;;;;;;5054078;28;20052;-68
2022/11/07 02:28:22;;;;;;;17.50;3.38;;;;;;;;;;5053763;28;20048;-67
2022/11/07 02:30:48;;;;;;;19.90;3.17;;;;;;;;;;5053791;28;20049;-68
2022/11/07 02:33:16;;;;;;;24.30;3.72;;;;;;;;;;5053477;28;20440;-68
2022/11/07 02:35:44;;;;;;;12.90;3.15;;;;;;;;;;5053532;28;20045;-68
2022/11/07 02:38:32;;;;;;;20.35;3.78;;;;;;;;;;5053838;28;20382;-67
2022/11/07 02:41:15;;;;;;;18.13;3.35;;;;;;;;;;5053569;28;20044;-67
2022/11/07 02:43:44;;;;;;;20.77;3.83;;;;;;;;;;5053457;28;20049;-67
2022/11/07 02:46:12;;;;;;;18.88;3.28;;;;;;;;;;5053369;28;20051;-67
2022/11/07 02:48:46;;;;;;;23.13;3.60;;;;;;;;;;5053491;28;20059;-67
2022/11/07 02:51:12;;;;;;;23.27;3.65;;;;;;;;;;5053261;28;20063;-68
2022/11/07 02:53:39;;;;;;;20.90;3.83;;;;;;;;;;5053099;28;20404;-68
2022/11/07 02:56:06;;;;;;;22.27;4.43;;;;;;;;;;5053103;28;20410;-68
2022/11/07 02:58:33;;;;;;;19.65;3.97;;;;;;;;;;5053081;28;20517;-68
2022/11/07 03:01:05;;;;;;;24.10;3.78;;;;;;;;;;5052943;28;20518;-68
2022/11/07 03:03:33;;;;;;;17.48;3.58;;;;;;;;;;5051755;28;20045;-68
2022/11/07 03:06:00;;;;;;;;;;;;;;;;;;5053584;28;20045;-67
2022/11/07 03:08:26;;;;;;;22.98;3.60;;;;;;;;;;5052953;28;19921;-68
2022/11/07 03:10:53;;;;;;;26.10;4.82;;;;;;;;;;5053020;28;20053;-68
2022/11/07 03:13:19;;;;;;;19.00;3.72;;;;;;;;;;5052748;28;20053;-68
2022/11/07 03:15:46;;;;;;;19.67;3.75;;;;;;;;;;5052637;28;20049;-68
2022/11/07 03:18:12;;;;;;;25.20;4.07;;;;;;;;;;5052652;28;20049;-68
2022/11/07 03:20:38;;;;;;;22.00;4.03;;;;;;;;;;5052714;28;20049;-68
2022/11/07 03:23:05;;;;;;;24.30;3.97;;;;;;;;;;5052592;28;20049;-68
2022/11/07 03:25:31;;;;;;;21.40;3.95;;;;;;;;;;5052908;28;20063;-68
2022/11/07 03:27:57;;;;;;;24.50;4.20;;;;;;;;;;5052542;28;20086;-68
2022/11/07 03:30:24;;;;;;;21.98;4.03;;;;;;;;;;5052455;28;20056;-68
2022/11/07 03:32:51;;;;;;;21.73;4.53;;;;;;;;;;5052316;28;20166;-68
2022/11/07 03:35:18;;;;;;;29.88;4.00;;;;;;;;;;5052326;28;20055;-68
2022/11/07 03:37:45;;;;;;;25.92;4.15;;;;;;;;;;5052593;28;20041;-68
2022/11/07 03:40:12;;;;;;;23.13;4.65;;;;;;;;;;5050915;28;20509;-68
2022/11/07 03:42:39;;;;;;;24.33;4.32;;;;;;;;;;5052509;28;20056;-68
2022/11/07 03:45:07;;;;;;;26.20;3.90;;;;;;;;;;5052184;28;20045;-68
2022/11/07 03:47:36;;;;;;;21.15;3.90;;;;;;;;;;5052526;28;20075;-69
2022/11/07 03:50:03;;;;;;;17.60;3.60;;;;;;;;;;5052198;28;20063;-68
2022/11/07 03:52:30;;;;;;;27.38;4.05;;;;;;;;;;5051985;28;20407;-69
2022/11/07 03:54:56;;;;;;;22.90;3.97;;;;;;;;;;5052083;28;20049;-68
2022/11/07 03:57:23;;;;;;;22.10;3.78;;;;;;;;;;5052196;28;20037;-69
2022/11/07 03:59:49;;;;;;;18.40;3.38;;;;;;;;;;5052282;28;20395;-68
2022/11/07 04:02:15;;;;;;;15.50;3.33;;;;;;;;;;5052098;28;20053;-69
2022/11/07 04:04:42;;;;;;;31.15;4.15;;;;;;;;;;5051625;28;20079;-69
2022/11/07 04:07:08;;;;;;;21.80;3.63;;;;;;;;;;5051908;28;20056;-69
2022/11/07 04:09:35;;;;;;;22.00;3.88;;;;;;;;;;5052323;28;20041;-68
2022/11/07 04:17:31;;;;;;;20.63;3.75;;;;;;;;;;5051867;28;20044;-69
2022/11/07 04:19:57;;;;;;;21.38;3.75;;;;;;;;;;5051622;28;20041;-69
2022/11/07 04:22:24;;;;;;;19.98;3.60;;;;;;;;;;5051679;28;20579;-69
2022/11/07 04:24:50;;;;;;;19.80;3.23;;;;;;;;;;5051590;28;20503;-69
2022/11/07 04:30:21;;;;;;;19.17;3.50;;;;;;;;;;5052058;28;20053;-69
2022/11/07 04:32:51;;;;;;;19.50;3.10;;;;;;;;;;5051611;28;20048;-69
2022/11/07 04:35:19;;;;;;;19.95;3.55;;;;;;;;;;5051472;28;20564;-69
2022/11/07 04:37:46;;;;;;;19.42;3.10;;;;;;;;;;5051542;28;20051;-68
2022/11/07 04:40:13;;;;;;;13.80;2.80;;;;;;;;;;5051703;28;20053;-68
2022/11/07 04:42:39;;;;;;;17.13;3.58;;;;;;;;;;5051454;28;20055;-68
2022/11/07 04:45:05;;;;;;;20.40;3.05;;;;;;;;;;5051309;28;20052;-68
2022/11/07 04:47:32;;;;;;;19.10;3.47;;;;;;;;;;5051433;28;20040;-68
2022/11/07 04:50:06;;;;;;;27.17;3.42;;;;;;;;;;5045152;28;20057;-68
2022/11/07 04:52:32;;;;;;;18.05;2.97;;;;;;;;;;5051622;28;20053;-68
2022/11/07 04:54:58;;;;;;;16.55;3.83;;;;;;;;;;5051217;28;20064;-69
2022/11/07 04:57:25;;;;;;;20.42;3.00;;;;;;;;;;5051091;28;20049;-69
2022/11/07 04:59:51;;;;;;;21.67;3.90;;;;;;;;;;5051228;28;20041;-69
2022/11/07 05:02:18;;;;;;;26.08;4.25;;;;;;;;;;5051206;28;20051;-69
2022/11/07 05:04:44;;;;;;;22.33;3.35;;;;;;;;;;5051468;28;20045;-68
2022/11/07 05:07:11;;;;;;;28.38;3.72;;;;;;;;;;5051186;28;20053;-69
2022/11/07 05:09:37;;;;;;;21.75;3.80;;;;;;;;;;5051213;28;20063;-69
2022/11/07 05:12:04;;;;;;;24.63;3.50;;;;;;;;;;5051347;28;20051;-69
2022/11/07 05:14:30;;;;;;;20.37;3.33;;;;;;;;;;5050163;28;20079;-69
2022/11/07 05:16:57;;;;;;;15.70;3.13;;;;;;;;;;5054947;28;20298;-69
2022/11/07 05:19:23;;;;;;;21.98;4.07;;;;;;;;;;5055361;28;20055;-69
2022/11/07 05:23:10;;;;;;;21.35;3.58;;;;;;;;;;5054992;28;20472;-69
2022/11/07 05:24:36;;;;;;;18.00;3.95;;;;;;;;;;5055140;28;20044;-69
2022/11/07 05:27:03;;;;;;;20.25;3.38;;;;;;;;;;5053568;28;20057;-69
2022/11/07 05:29:29;;;;;;;21.83;4.07;;;;;;;;;;5054951;28;20052;-68
2022/11/07 05:31:56;;;;;;;17.00;2.78;;;;;;;;;;5054849;28;20052;-68
2022/11/07 05:34:22;;;;;;;15.25;3.17;;;;;;;;;;5053671;28;20077;-68
2022/11/07 05:36:49;;;;;;;17.13;3.28;;;;;;;;;;5054606;28;20049;-68
2022/11/07 05:39:15;;;;;;;22.58;3.47;;;;;;;;;;5054857;28;20049;-68
2022/11/07 05:41:41;;;;;;;18.70;2.67;;;;;;;;;;5054828;28;20055;-68
2022/11/07 05:44:09;;;;;;;26.45;3.60;;;;;;;;;;5054620;28;20059;-68
2022/11/07 05:46:35;;;;;;;20.75;3.90;;;;;;;;;;5054535;28;20051;-68
2022/11/07 05:49:01;;;;;;;21.88;4.28;;;;;;;;;;5054446;28;20057;-68
2022/11/07 05:51:28;;;;;;;20.63;3.45;;;;;;;;;;5054423;28;20078;-68
2022/11/07 05:53:54;;;;;;;18.25;3.05;;;;;;;;;;5054326;28;20053;-68
2022/11/07 05:56:20;;;;;;;23.98;3.25;;;;;;;;;;5054411;28;20045;-68
2022/11/07 05:58:47;;;;;;;23.70;3.90;;;;;;;;;;5054375;28;20067;-68
2022/11/07 06:01:13;;;;;;;19.77;2.90;;;;;;;;;;5054279;28;20048;-68
2022/11/07 06:03:39;;;;;;;22.67;3.53;;;;;;;;;;5054204;28;20508;-68
2022/11/07 06:06:06;;;;;;;22.63;3.47;;;;;;;;;;5053933;28;20049;-68
2022/11/07 06:08:32;;;;;;;19.25;3.80;;;;;;;;;;5054361;28;20432;-69
2022/11/07 06:11:02;;;;;;;24.00;3.70;;;;;;;;;;5054366;28;20059;-69
2022/11/07 06:13:28;;;;;;;19.35;3.50;;;;;;;;;;5054535;28;20052;-68
2022/11/07 06:15:56;;;;;;;23.73;4.28;;;;;;;;;;5054050;28;20075;-68
2022/11/07 06:18:22;;;;;;;19.38;3.53;;;;;;;;;;5053747;28;20041;-68
2022/11/07 06:20:49;;;;;;;21.73;3.08;;;;;;;;;;5054125;28;20047;-69
2022/11/07 06:23:15;;;;;;;21.98;3.33;;;;;;;;;;5054061;28;20045;-69
2022/11/07 06:25:42;;;;;;;22.63;3.38;;;;;;;;;;5053465;28;20045;-68
2022/11/07 06:28:10;;;;;;;26.88;3.67;;;;;;;;;;5054014;28;20416;-68
2022/11/07 06:30:36;;;;;;;17.95;3.65;;;;;;;;;;5053587;28;20527;-68
2022/11/07 06:33:04;;;;;;;22.33;4.05;;;;;;;;;;5052531;28;20060;-68
2022/11/07 06:35:30;;;;;;;18.77;4.05;;;;;;;;;;5053556;28;20608;-68
2022/11/07 06:38:01;;;;;;;18.73;3.30;;;;;;;;;;5053908;28;20041;-68
2022/11/07 06:40:27;;;;;;;29.92;3.78;;;;;;;;;;5053792;28;20051;-69
2022/11/07 06:42:54;;;;;;;16.00;3.08;;;;;;;;;;5053534;28;20041;-68
2022/11/07 06:45:21;;;;;;;23.15;3.75;;;;;;;;;;5053339;28;20053;-68
2022/11/07 06:47:47;;;;;;;22.63;4.17;;;;;;;;;;5053387;28;20051;-68
2022/11/07 06:50:13;;;;;;;20.50;3.28;;;;;;;;;;5053652;28;20055;-68
2022/11/07 06:52:40;;;;;;;22.92;3.75;;;;;;;;;;5053458;28;20051;-68
2022/11/07 06:55:06;;;;;;;18.55;2.95;;;;;;;;;;5053434;28;20064;-69
2022/11/07 06:57:33;;;;;;;18.05;3.53;;;;;;;;;;5053116;28;20083;-68
2022/11/07 06:59:59;;;;;;;15.07;2.78;;;;;;;;;;5053354;28;20121;-69
2022/11/07 07:02:26;;;;;;;19.27;2.85;;;;;;;;;;5052988;28;20045;-69
2022/11/07 07:05:12;;;;;;;19.42;2.65;;;;;;;;;;5053007;28;20420;-68
2022/11/07 07:07:46;;;;;;;21.58;3.53;;;;;;;;;;5053365;28;20130;-69
2022/11/07 07:10:12;;;;;;;18.77;3.53;;;;;;;;;;5052940;28;20053;-69
2022/11/07 07:12:39;;;;;;;21.75;3.40;;;;;;;;;;5052913;28;20052;-69
2022/11/07 07:15:06;;;;;;;23.27;3.50;;;;;;;;;;5052782;28;20385;-73
2022/11/07 07:17:32;;;;;;;19.77;3.83;;;;;;;;;;5047590;28;20052;-69
2022/11/07 07:19:59;;;;;;;21.70;3.38;;;;;;;;;;5047903;28;20282;-70
2022/11/07 07:22:25;;;;;;;23.27;3.40;;;;;;;;;;5045449;28;20051;-69
2022/11/07 07:24:52;;;;;;;21.52;3.90;;;;;;;;;;5043895;28;20042;-69
2022/11/07 07:27:19;;;;;;;29.73;3.90;;;;;;;;;;5052817;28;20048;-69
2022/11/07 07:29:46;;;;;;;26.10;3.75;;;;;;;;;;5052690;28;20055;-69
2022/11/07 07:32:12;;;;;;;18.80;4.03;;;;;;;;;;5052524;28;20063;-69
2022/11/07 07:34:38;;;;;;;19.98;3.58;;;;;;;;;;5052683;28;20047;-70
2022/11/07 07:37:05;;;;;;;17.63;3.33;;;;;;;;;;5052232;28;20512;-71
2022/11/07 07:39:31;;;;;;;18.80;3.75;;;;;;;;;;5051811;28;20496;-71
2022/11/07 07:41:58;;;;;;;19.58;3.42;;;;;;;;;;5052551;28;20052;-69
2022/11/07 07:44:24;;;;;;;23.17;3.50;;;;;;;;;;5052293;28;20477;-71
2022/11/07 07:46:50;;;;;;;19.38;3.38;;;;;;;;;;5052551;28;20047;-69
2022/11/07 07:49:17;;;;;;;19.95;3.35;;;;;;;;;;5052427;28;20045;-71
2022/11/07 07:51:43;;;;;;;19.10;3.13;;;;;;;;;;5052357;28;20397;-72
2022/11/07 07:54:10;;;;;;;24.08;3.72;;;;;;;;;;5052053;28;20049;-74
2022/11/07 07:56:37;;;;;;;20.20;3.08;;;;;;;;;;5052053;28;20120;-73
2022/11/07 07:59:03;;;;;;;24.23;4.00;;;;;;;;;;5040526;28;20731;-73
2022/11/07 08:01:29;;;;;;;19.38;2.90;;;;;;;;;;5048849;28;20055;-71
2022/11/07 08:03:56;;;;;;;22.10;3.55;;;;;;;;;;5050071;28;20049;-71
2022/11/07 08:06:27;;;;;;;21.15;3.65;;;;;;;;;;5047267;28;20045;-71
2022/11/07 08:08:54;;;;;;;14.13;2.72;;;;;;;;;;5050507;28;20048;-72
2022/11/07 08:11:20;;;;;;;15.77;2.95;;;;;;;;;;5030235;28;20049;-71
2022/11/07 08:13:46;;;;;;;21.95;3.08;;;;;;;;;;5035253;28;20048;-72
2022/11/07 08:16:13;;;;;;;15.68;2.70;;;;;;;;;;5034646;28;20053;-71
2022/11/07 08:18:39;;;;;;;15.43;2.22;;;;;;;;;;5031609;28;20072;-72
2022/11/07 08:21:06;;;;;;;14.00;2.67;;;;;;;;;;5037808;28;20064;-71
2022/11/07 08:23:33;;;;;;;17.45;3.08;;;;;;;;;;5032661;28;20049;-70
2022/11/07 08:26:01;;;;;;;13.80;2.92;;;;;;;;;;5050655;28;20044;-71
2022/11/07 08:28:28;;;;;;;15.57;2.33;;;;;;;;;;5047568;28;20063;-71
2022/11/07 08:30:55;;;;;;;22.67;3.53;;;;;;;;;;5041044;28;20055;-70
2022/11/07 08:33:22;;;;;;;16.77;2.92;;;;;;;;;;5037692;28;20063;-70
2022/11/07 08:35:48;;;;;;;11.20;2.80;;;;;;;;;;5035488;28;20501;-71
2022/11/07 08:38:15;;;;;;;12.48;2.45;;;;;;;;;;5047995;28;20081;-71
2022/11/07 08:40:41;;;;;;;14.85;2.80;;;;;;;;;;5040953;28;20050;-71
2022/11/07 08:43:07;;;;;;;14.25;2.72;;;;;;;;;;5038639;28;20048;-71
2022/11/07 08:45:34;;;;;;;12.93;2.72;;;;;;;;;;5051560;28;20064;-71
2022/11/07 08:48:00;;;;;;;13.38;2.65;;;;;;;;;;5051436;28;20140;-71
2022/11/07 08:50:27;;;;;;;11.80;2.72;;;;;;;;;;5051375;28;20092;-72
2022/11/07 08:52:53;;;;;;;12.15;2.90;;;;;;;;;;5044430;28;20060;-71
2022/11/07 08:55:27;;;;;;;11.05;3.35;;;;;;;;;;5054300;28;20076;-71
2022/11/07 08:58:01;;;;;;;11.52;2.72;;;;;;;;;;5039290;28;20038;-71
2022/11/07 09:00:28;;;;;;;9.98;2.90;;;;;;;;;;5036394;28;20045;-71
2022/11/07 09:02:54;;;;;;;11.10;2.57;;;;;;;;;;5034838;28;20056;-71
2022/11/07 09:05:40;;;;;;;11.50;3.03;;;;;;;;;;5054356;28;20056;-71
2022/11/07 09:08:07;;;;;;;18.02;3.55;;;;;;;;;;5037068;28;20059;-72
2022/11/07 09:10:33;;;;;;;15.95;3.63;;;;;;;;;;5034590;28;20057;-72
2022/11/07 09:12:59;;;;;;;15.07;3.53;;;;;;;;;;5052976;28;20056;-71
2022/11/07 09:15:26;;;;;;;17.17;3.10;;;;;;;;;;5046919;28;20045;-71
2022/11/07 09:17:52;;;;;;;15.25;3.17;;;;;;;;;;5051136;28;20049;-71
2022/11/07 09:20:19;;;;;;;11.73;3.03;;;;;;;;;;5054712;28;20049;-71
2022/11/07 09:22:45;;;;;;;15.15;3.58;;;;;;;;;;5054375;28;20045;-72
2022/11/07 09:25:11;;;;;;;16.10;3.58;;;;;;;;;;5054393;28;20049;-71
2022/11/07 09:27:38;;;;;;;12.45;2.70;;;;;;;;;;5048935;28;20469;-71
2022/11/07 09:30:04;;;;;;;16.15;3.55;;;;;;;;;;5033785;28;20052;-71
2022/11/07 09:32:31;;;;;;;13.82;3.22;;;;;;;;;;5033827;28;20095;-71
2022/11/07 09:35:11;;;;;;;16.58;3.45;;;;;;;;;;5034173;28;20386;-72
2022/11/07 09:37:38;;;;;;;13.23;3.38;;;;;;;;;;5041376;28;20496;-71
2022/11/07 09:40:16;;;;;;;11.60;3.83;;;;;;;;;;5054374;28;20055;-71
2022/11/07 09:42:55;;;;;;;14.88;4.78;;;;;;;;;;5054283;28;20063;-71
2022/11/07 09:45:21;;;;;;;15.02;5.05;;;;;;;;;;5053999;28;20579;-71
2022/11/07 09:47:55;;;;;;;19.08;5.05;;;;;;;;;;5054156;28;20044;-71
2022/11/07 09:50:29;;;;;;;13.63;3.85;;;;;;;;;;5054142;28;20053;-71
2022/11/07 09:53:16;;;;;;;14.10;4.45;;;;;;;;;;5045554;28;20045;-71
2022/11/07 09:55:58;;;;;;;13.57;3.80;;;;;;;;;;5051810;28;20048;-71
2022/11/07 09:58:25;;;;;;;13.52;3.47;;;;;;;;;;5043094;28;20053;-71
2022/11/07 10:00:54;;;;;;;12.82;3.22;;;;;;;;;;5053210;28;20052;-71
2022/11/07 10:03:20;;;;;;;16.92;3.30;;;;;;;;;;5035845;28;20045;-70
2022/11/07 10:06:01;;;;;;;15.48;3.88;;;;;;;;;;5033552;28;20057;-71
2022/11/07 10:08:49;;;;;;;12.23;3.03;;;;;;;;;;5034910;28;20050;-70
2022/11/07 10:11:34;;;;;;;16.50;4.07;;;;;;;;;;5029709;28;20051;-71
2022/11/07 10:14:08;;;;;;;15.95;3.13;;;;;;;;;;5034021;28;20104;-70
2022/11/07 10:16:38;;;;;;;11.90;3.67;;;;;;;;;;5047349;28;20049;-69
2022/11/07 10:19:13;;;;;;;19.65;3.47;;;;;;;;;;5053577;28;20051;-71
2022/11/07 10:21:45;;;;;;;14.27;3.25;;;;;;;;;;5053361;28;20399;-71
2022/11/07 10:24:21;;;;;;;18.83;3.70;;;;;;;;;;5053513;28;20045;-71
2022/11/07 10:26:48;;;;;;;12.48;3.22;;;;;;;;;;5053851;28;20053;-71
2022/11/07 10:29:19;;;;;;;13.80;3.00;;;;;;;;;;5053067;28;20063;-71
2022/11/07 10:31:49;;;;;;;17.33;3.60;;;;;;;;;;5053325;28;20420;-71
2022/11/07 10:34:19;;;;;;;15.57;3.35;;;;;;;;;;5053367;28;20049;-72
2022/11/07 10:36:46;;;;;;;10.75;3.05;;;;;;;;;;5053391;28;20063;-72
2022/11/07 10:39:17;;;;;;;12.80;2.95;;;;;;;;;;5053018;28;20048;-72
2022/11/07 10:42:04;;;;;;;9.02;2.65;;;;;;;;;;5053132;28;20041;-72
2022/11/07 10:44:30;;;;;;;;;;;;;;;;;;5052945;28;20049;-72
2022/11/07 10:46:57;;;;;;;12.77;2.50;;;;;;;;;;5052587;28;20296;-71
2022/11/07 10:49:25;;;;;;;11.85;2.92;;;;;;;;;;5052730;28;20051;-72
2022/11/07 10:51:52;;;;;;;8.25;2.47;;;;;;;;;;5043401;28;20053;-71
2022/11/07 10:54:24;;;;;;;14.23;3.10;;;;;;;;;;5032118;28;20501;-72
2022/11/07 10:57:10;;;;;;;10.85;2.35;;;;;;;;;;5052881;28;20710;-71
2022/11/07 10:59:38;;;;;;;8.30;2.58;;;;;;;;;;5052529;28;20052;-71
2022/11/07 11:02:24;;;;;;;13.75;3.10;;;;;;;;;;5051155;28;20052;-71
2022/11/07 11:04:53;;;;;;;10.77;2.72;;;;;;;;;;5052676;28;20135;-71
2022/11/07 11:07:20;;;;;;;11.73;2.72;;;;;;;;;;5052747;28;20055;-71
2022/11/07 11:09:55;;;;;;;11.75;2.28;;;;;;;;;;5043993;28;20428;-71
2022/11/07 11:12:26;;;;;;;9.88;2.13;;;;;;;;;;5031539;28;20187;-71
2022/11/07 11:15:09;;;;;;;12.45;2.53;;;;;;;;;;5031741;28;20063;-71
2022/11/07 11:17:35;;;;;;;9.73;2.40;;;;;;;;;;5031987;28;20140;-71
2022/11/07 11:20:03;;;;;;;9.45;2.60;;;;;;;;;;5034757;28;20045;-72
2022/11/07 11:22:29;;;;;;;12.77;3.33;;;;;;;;;;5038273;28;20045;-71
2022/11/07 11:25:17;;;;;;;11.35;2.50;;;;;;;;;;5052635;28;20055;-71
2022/11/07 11:27:44;;;;;;;13.07;2.15;;;;;;;;;;5052253;28;20063;-71
2022/11/07 11:30:13;;;;;;;12.95;2.83;;;;;;;;;;5051981;28;20511;-72
2022/11/07 11:32:43;;;;;;;12.85;2.42;;;;;;;;;;5051800;28;20413;-72
2022/11/07 11:35:42;;;;;;;13.75;2.72;;;;;;;;;;5039454;28;20049;-72
2022/11/07 11:38:17;;;;;;;12.27;2.88;;;;;;;;;;5045152;28;20045;-72
2022/11/07 11:40:47;;;;;;;15.02;2.78;;;;;;;;;;5033944;28;20041;-72
2022/11/07 11:43:24;;;;;;;20.30;3.67;;;;;;;;;;5032650;28;20049;-72
2022/11/07 11:46:05;;;;;;;15.68;2.97;;;;;;;;;;5038318;28;20051;-72
2022/11/07 11:48:41;;;;;;;15.35;3.72;;;;;;;;;;5045553;28;20064;-72
2022/11/07 11:51:10;;;;;;;13.70;3.67;;;;;;;;;;5028276;28;20053;-71
2022/11/07 11:53:37;;;;;;;17.23;3.65;;;;;;;;;;5031168;28;20045;-72
2022/11/07 11:56:06;;;;;;;20.15;3.95;;;;;;;;;;5031089;28;20508;-71
2022/11/07 11:58:49;;;;;;;16.30;3.72;;;;;;;;;;5039370;28;20041;-71
2022/11/07 12:01:18;;;;;;;14.75;3.67;;;;;;;;;;5031673;28;20052;-71
2022/11/07 12:03:45;;;;;;;23.83;5.07;;;;;;;;;;5047948;28;20057;-71
2022/11/07 12:06:23;;;;;;;17.23;3.58;;;;;;;;;;5051641;28;20053;-71
2022/11/07 12:08:50;;;;;;;22.00;4.05;;;;;;;;;;5046043;28;20049;-71
2022/11/07 12:11:19;;;;;;;12.75;3.58;;;;;;;;;;5035948;28;20056;-71
2022/11/07 12:13:57;;;;;;;23.35;4.13;;;;;;;;;;5051356;28;20053;-71
2022/11/07 12:16:42;;;;;;;16.40;3.42;;;;;;;;;;5049596;28;20045;-72
2022/11/07 12:19:14;;;;;;;15.98;3.20;;;;;;;;;;5039104;28;20515;-71
2022/11/07 12:21:49;;;;;;;19.75;3.55;;;;;;;;;;5051833;28;20051;-71
2022/11/07 12:24:25;;;;;;;16.88;3.80;;;;;;;;;;5051120;28;20049;-71
2022/11/07 12:26:58;;;;;;;18.73;4.00;;;;;;;;;;5043186;28;20046;-72
2022/11/07 12:29:31;;;;;;;23.13;4.07;;;;;;;;;;5031299;28;20053;-71
2022/11/07 12:31:57;;;;;;;22.67;4.65;;;;;;;;;;5039455;28;20504;-72
2022/11/07 12:34:25;;;;;;;23.35;4.47;;;;;;;;;;5031127;28;20563;-71
2022/11/07 12:37:09;;;;;;;23.08;4.25;;;;;;;;;;5031367;28;20045;-71
2022/11/07 12:39:36;;;;;;;22.70;4.75;;;;;;;;;;5049760;28;20045;-71
2022/11/07 12:42:14;;;;;;;24.15;5.22;;;;;;;;;;5050844;28;20048;-71
2022/11/07 12:44:43;;;;;;;21.35;4.85;;;;;;;;;;5050747;28;20044;-71
2022/11/07 12:47:36;;;;;;;28.60;4.97;;;;;;;;;;5050568;28;20041;-71
2022/11/07 12:50:09;;;;;;;23.35;4.40;;;;;;;;;;5022465;28;20492;-71
2022/11/07 12:52:41;;;;;;;26.77;5.53;;;;;;;;;;5050554;28;20531;-71
2022/11/07 12:55:20;;;;;;;25.30;5.72;;;;;;;;;;5050611;28;20067;-71
2022/11/07 12:57:51;;;;;;;24.40;5.30;;;;;;;;;;5051554;28;20048;-71
2022/11/07 13:00:18;;;;;;;27.17;6.05;;;;;;;;;;5051367;28;20045;-71
2022/11/07 13:03:05;;;;;;;25.67;5.13;;;;;;;;;;5051166;28;20148;-71
2022/11/07 13:05:34;;;;;;;35.08;6.15;;;;;;;;;;5051509;28;20099;-71
2022/11/07 13:08:19;;;;;;;29.52;5.20;;;;;;;;;;5051462;28;20059;-71
2022/11/07 13:10:51;;;;;;;28.40;5.90;;;;;;;;;;5051386;28;20045;-71
2022/11/07 13:13:41;;;;;;;31.80;6.32;;;;;;;;;;5051107;28;20400;-71
2022/11/07 13:16:24;;;;;;;24.20;5.72;;;;;;;;;;5050559;28;20053;-71
2022/11/07 13:18:51;;;;;;;24.65;5.15;;;;;;;;;;5051077;28;20048;-71
2022/11/07 13:21:17;;;;;;;26.20;5.93;;;;;;;;;;5051112;28;20048;-71
2022/11/07 13:23:45;;;;;;;28.38;5.72;;;;;;;;;;5050724;28;20051;-71
2022/11/07 13:26:12;;;;;;;27.80;6.07;;;;;;;;;;5051006;28;20048;-71
2022/11/07 13:29:00;;;;;;;26.30;5.32;;;;;;;;;;5040420;28;20053;-71
2022/11/07 13:31:31;;;;;;;32.13;5.63;;;;;;;;;;5031841;28;20049;-71
2022/11/07 13:34:16;;;;;;;31.30;5.72;;;;;;;;;;5049784;28;20496;-70
2022/11/07 13:36:43;;;;;;;31.63;5.57;;;;;;;;;;5040758;28;20053;-71
2022/11/07 13:39:10;;;;;;;30.35;6.20;;;;;;;;;;5054104;28;20049;-70
2022/11/07 13:41:37;;;;;;;31.60;6.28;;;;;;;;;;5035765;28;20045;-70
2022/11/07 13:44:05;;;;;;;28.17;6.05;;;;;;;;;;5033787;28;20049;-71
2022/11/07 13:46:37;;;;;;;38.53;6.50;;;;;;;;;;5045368;28;20049;-70
2022/11/07 13:49:03;;;;;;;24.00;5.45;;;;;;;;;;5027353;28;20064;-70
2022/11/07 13:51:40;;;;;;;31.15;6.22;;;;;;;;;;5053926;28;20057;-70
2022/11/07 13:54:13;;;;;;;30.58;5.43;;;;;;;;;;5035949;28;20053;-71
2022/11/07 13:56:39;;;;;;;29.92;6.88;;;;;;;;;;5033630;28;20053;-70
2022/11/07 13:59:11;;;;;;;33.00;6.00;;;;;;;;;;5045974;28;20052;-71
2022/11/07 14:01:44;;;;;;;30.92;6.30;;;;;;;;;;5053537;28;20119;-70
2022/11/07 14:04:20;;;;;;;37.38;7.05;;;;;;;;;;5048903;28;20041;-71
2022/11/07 14:06:47;;;;;;;29.13;6.10;;;;;;;;;;5048545;28;20045;-70
2022/11/07 14:09:18;;;;;;;25.40;5.65;;;;;;;;;;5048336;28;20556;-71
2022/11/07 14:11:46;;;;;;;23.67;5.47;;;;;;;;;;5033076;28;20056;-70
2022/11/07 14:14:13;;;;;;;;;;;;;;;;;;5033923;28;20053;-71
2022/11/07 14:16:39;;;;;;;39.00;6.22;;;;;;;;;;5032888;28;20016;-71
2022/11/07 14:19:11;;;;;;;29.65;5.75;;;;;;;;;;5032942;28;20045;-71
2022/11/07 14:21:38;;;;;;;26.58;5.32;;;;;;;;;;5035303;28;20359;-70
2022/11/07 14:24:22;;;;;;;27.90;5.25;;;;;;;;;;5050628;28;20515;-71
2022/11/07 14:27:00;;;;;;;26.83;5.18;;;;;;;;;;5053207;28;20057;-70
2022/11/07 14:29:26;;;;;;;25.85;5.25;;;;;;;;;;5053157;28;20523;-70
2022/11/07 14:31:56;;;;;;;26.67;4.95;;;;;;;;;;5043888;28;20057;-71
2022/11/07 14:34:23;;;;;;;34.08;6.25;;;;;;;;;;5032820;28;20053;-71
2022/11/07 14:36:51;;;;;;;32.27;5.43;;;;;;;;;;5042596;28;20051;-70
2022/11/07 14:39:18;;;;;;;29.55;5.68;;;;;;;;;;5040645;28;20163;-70
2022/11/07 14:41:45;;;;;;;;;;;;;;;;;;5033125;28;20116;-71
2022/11/07 14:44:13;;;;;;;22.70;4.95;;;;;;;;;;5050483;28;19932;-70
2022/11/07 14:46:40;;;;;;;32.50;6.05;;;;;;;;;;5052160;28;20055;-69
2022/11/07 14:49:12;;;;;;;27.92;5.90;;;;;;;;;;5052548;28;20063;-71
2022/11/07 14:51:39;;;;;;;28.95;6.00;;;;;;;;;;5046126;28;20060;-71
2022/11/07 14:54:10;;;;;;;26.67;5.43;;;;;;;;;;5040967;28;20060;-70
2022/11/07 14:56:38;;;;;;;30.50;5.72;;;;;;;;;;5040809;28;20049;-71